sensor_id;sensor_type;location;lat;lon;timestamp;P1;durP1;ratioP1;P2;durP2;ratioP2
17965;SDS011;9108;53.204;10.424;2022-07-22T00:01:48;15.50;;;9.57;;
17965;SDS011;9108;53.204;10.424;2022-07-22T00:04:15;16.80;;;10.35;;
17965;SDS011;9108;53.204;10.424;2022-07-22T00:06:42;17.20;;;10.57;;
17965;SDS011;9108;53.204;10.424;2022-07-22T00:09:09;16.55;;;10.52;;
17965;SDS011;9108;53.204;10.424;2022-07-22T00:11:36;15.15;;;9.90;;
17965;SDS011;9108;53.204;10.424;2022-07-22T00:14:04;18.35;;;10.57;;
17965;SDS011;9108;53.204;10.424;2022-07-22T00:16:31;18.63;;;10.40;;
17965;SDS011;9108;53.204;10.424;2022-07-22T00:18:59;16.73;;;10.33;;
17965;SDS011;9108;53.204;10.424;2022-07-22T00:21:27;16.17;;;9.75;;
17965;SDS011;9108;53.204;10.424;2022-07-22T00:23:54;15.93;;;10.05;;
17965;SDS011;9108;53.204;10.424;2022-07-22T00:26:21;17.15;;;10.35;;
17965;SDS011;9108;53.204;10.424;2022-07-22T00:28:48;16.00;;;9.82;;
17965;SDS011;9108;53.204;10.424;2022-07-22T00:31:15;17.63;;;9.73;;
17965;SDS011;9108;53.204;10.424;2022-07-22T00:33:42;13.88;;;9.32;;
17965;SDS011;9108;53.204;10.424;2022-07-22T00:36:10;17.70;;;11.38;;
17965;SDS011;9108;53.204;10.424;2022-07-22T00:38:37;17.85;;;11.35;;
17965;SDS011;9108;53.204;10.424;2022-07-22T00:41:05;14.52;;;9.40;;
17965;SDS011;9108;53.204;10.424;2022-07-22T00:43:48;16.67;;;10.00;;
17965;SDS011;9108;53.204;10.424;2022-07-22T00:46:15;13.70;;;8.63;;
17965;SDS011;9108;53.204;10.424;2022-07-22T00:48:42;15.83;;;9.53;;
17965;SDS011;9108;53.204;10.424;2022-07-22T00:51:11;16.05;;;9.90;;
17965;SDS011;9108;53.204;10.424;2022-07-22T00:53:38;16.35;;;10.43;;
17965;SDS011;9108;53.204;10.424;2022-07-22T00:56:05;17.83;;;10.77;;
17965;SDS011;9108;53.204;10.424;2022-07-22T00:58:33;14.88;;;9.82;;
17965;SDS011;9108;53.204;10.424;2022-07-22T01:01:00;16.83;;;9.80;;
17965;SDS011;9108;53.204;10.424;2022-07-22T01:03:27;15.52;;;10.45;;
17965;SDS011;9108;53.204;10.424;2022-07-22T01:05:54;15.98;;;9.82;;
17965;SDS011;9108;53.204;10.424;2022-07-22T01:08:22;16.02;;;10.23;;
17965;SDS011;9108;53.204;10.424;2022-07-22T01:10:50;13.87;;;9.80;;
17965;SDS011;9108;53.204;10.424;2022-07-22T01:13:17;16.67;;;10.35;;
17965;SDS011;9108;53.204;10.424;2022-07-22T01:15:44;13.57;;;9.47;;
17965;SDS011;9108;53.204;10.424;2022-07-22T01:18:11;16.27;;;9.77;;
17965;SDS011;9108;53.204;10.424;2022-07-22T01:20:40;15.90;;;10.52;;
17965;SDS011;9108;53.204;10.424;2022-07-22T01:23:07;17.55;;;10.38;;
17965;SDS011;9108;53.204;10.424;2022-07-22T01:25:35;19.80;;;10.40;;
17965;SDS011;9108;53.204;10.424;2022-07-22T01:28:02;18.55;;;10.52;;
17965;SDS011;9108;53.204;10.424;2022-07-22T01:30:29;16.83;;;10.60;;
17965;SDS011;9108;53.204;10.424;2022-07-22T01:32:56;22.60;;;12.50;;
17965;SDS011;9108;53.204;10.424;2022-07-22T01:35:23;23.33;;;13.60;;
17965;SDS011;9108;53.204;10.424;2022-07-22T01:37:52;23.23;;;13.23;;
17965;SDS011;9108;53.204;10.424;2022-07-22T01:40:19;22.92;;;13.77;;
17965;SDS011;9108;53.204;10.424;2022-07-22T01:42:46;23.80;;;14.00;;
17965;SDS011;9108;53.204;10.424;2022-07-22T01:45:13;27.17;;;15.33;;
17965;SDS011;9108;53.204;10.424;2022-07-22T01:47:40;28.67;;;15.05;;
17965;SDS011;9108;53.204;10.424;2022-07-22T01:50:08;27.38;;;15.02;;
17965;SDS011;9108;53.204;10.424;2022-07-22T01:52:36;27.48;;;15.15;;
17965;SDS011;9108;53.204;10.424;2022-07-22T01:55:05;28.35;;;15.98;;
17965;SDS011;9108;53.204;10.424;2022-07-22T01:57:32;29.00;;;16.20;;
17965;SDS011;9108;53.204;10.424;2022-07-22T01:59:59;30.35;;;16.48;;
17965;SDS011;9108;53.204;10.424;2022-07-22T02:02:26;33.90;;;17.33;;
17965;SDS011;9108;53.204;10.424;2022-07-22T02:04:54;19.33;;;10.43;;
17965;SDS011;9108;53.204;10.424;2022-07-22T02:07:21;15.40;;;7.13;;
17965;SDS011;9108;53.204;10.424;2022-07-22T02:09:49;12.43;;;6.30;;
17965;SDS011;9108;53.204;10.424;2022-07-22T02:12:18;9.43;;;5.00;;
17965;SDS011;9108;53.204;10.424;2022-07-22T02:14:45;6.28;;;3.75;;
17965;SDS011;9108;53.204;10.424;2022-07-22T02:17:12;4.45;;;2.40;;
17965;SDS011;9108;53.204;10.424;2022-07-22T02:19:39;4.78;;;2.00;;
17965;SDS011;9108;53.204;10.424;2022-07-22T02:22:06;3.93;;;1.80;;
17965;SDS011;9108;53.204;10.424;2022-07-22T02:24:34;3.90;;;1.73;;
17965;SDS011;9108;53.204;10.424;2022-07-22T02:27:01;4.20;;;1.77;;
17965;SDS011;9108;53.204;10.424;2022-07-22T02:29:30;6.10;;;1.58;;
17965;SDS011;9108;53.204;10.424;2022-07-22T02:31:57;3.20;;;1.10;;
17965;SDS011;9108;53.204;10.424;2022-07-22T02:34:25;4.63;;;1.20;;
17965;SDS011;9108;53.204;10.424;2022-07-22T02:36:52;2.88;;;1.00;;
17965;SDS011;9108;53.204;10.424;2022-07-22T02:39:19;2.67;;;1.15;;
17965;SDS011;9108;53.204;10.424;2022-07-22T02:41:46;2.38;;;0.93;;
17965;SDS011;9108;53.204;10.424;2022-07-22T02:44:14;1.52;;;0.80;;
17965;SDS011;9108;53.204;10.424;2022-07-22T02:46:42;1.15;;;0.70;;
17965;SDS011;9108;53.204;10.424;2022-07-22T02:49:09;1.73;;;0.60;;
17965;SDS011;9108;53.204;10.424;2022-07-22T02:51:37;1.83;;;0.80;;
17965;SDS011;9108;53.204;10.424;2022-07-22T02:54:04;1.90;;;0.70;;
17965;SDS011;9108;53.204;10.424;2022-07-22T02:56:31;2.20;;;0.80;;
17965;SDS011;9108;53.204;10.424;2022-07-22T02:58:58;1.70;;;0.90;;
17965;SDS011;9108;53.204;10.424;2022-07-22T03:01:25;2.20;;;0.80;;
17965;SDS011;9108;53.204;10.424;2022-07-22T03:03:54;1.45;;;0.90;;
17965;SDS011;9108;53.204;10.424;2022-07-22T03:06:21;2.03;;;1.00;;
17965;SDS011;9108;53.204;10.424;2022-07-22T03:08:48;3.83;;;1.27;;
17965;SDS011;9108;53.204;10.424;2022-07-22T03:11:15;3.50;;;1.33;;
17965;SDS011;9108;53.204;10.424;2022-07-22T03:13:42;4.45;;;1.50;;
17965;SDS011;9108;53.204;10.424;2022-07-22T03:16:09;5.22;;;1.75;;
17965;SDS011;9108;53.204;10.424;2022-07-22T03:18:36;4.38;;;1.38;;
17965;SDS011;9108;53.204;10.424;2022-07-22T03:21:05;2.67;;;1.70;;
17965;SDS011;9108;53.204;10.424;2022-07-22T03:23:32;3.13;;;1.45;;
17965;SDS011;9108;53.204;10.424;2022-07-22T03:25:59;3.20;;;1.90;;
17965;SDS011;9108;53.204;10.424;2022-07-22T03:28:26;4.60;;;1.90;;
17965;SDS011;9108;53.204;10.424;2022-07-22T03:30:53;5.28;;;2.10;;
17965;SDS011;9108;53.204;10.424;2022-07-22T03:33:20;4.22;;;2.10;;
17965;SDS011;9108;53.204;10.424;2022-07-22T03:35:47;4.55;;;2.22;;
17965;SDS011;9108;53.204;10.424;2022-07-22T03:38:16;8.10;;;2.63;;
17965;SDS011;9108;53.204;10.424;2022-07-22T03:40:43;5.68;;;2.20;;
17965;SDS011;9108;53.204;10.424;2022-07-22T03:43:10;4.60;;;2.08;;
17965;SDS011;9108;53.204;10.424;2022-07-22T03:45:38;3.88;;;1.92;;
17965;SDS011;9108;53.204;10.424;2022-07-22T03:48:05;4.47;;;1.90;;
17965;SDS011;9108;53.204;10.424;2022-07-22T03:50:32;6.18;;;1.80;;
17965;SDS011;9108;53.204;10.424;2022-07-22T03:52:59;3.92;;;1.90;;
17965;SDS011;9108;53.204;10.424;2022-07-22T03:55:27;5.28;;;1.85;;
17965;SDS011;9108;53.204;10.424;2022-07-22T03:57:55;4.72;;;1.77;;
17965;SDS011;9108;53.204;10.424;2022-07-22T04:00:22;4.18;;;1.85;;
17965;SDS011;9108;53.204;10.424;2022-07-22T04:02:49;5.23;;;1.70;;
17965;SDS011;9108;53.204;10.424;2022-07-22T04:05:16;6.78;;;1.70;;
17965;SDS011;9108;53.204;10.424;2022-07-22T04:07:43;4.55;;;1.73;;
17965;SDS011;9108;53.204;10.424;2022-07-22T04:10:10;6.05;;;1.80;;
17965;SDS011;9108;53.204;10.424;2022-07-22T04:12:39;6.63;;;1.73;;
17965;SDS011;9108;53.204;10.424;2022-07-22T04:15:07;6.07;;;2.00;;
17965;SDS011;9108;53.204;10.424;2022-07-22T04:17:35;5.80;;;2.08;;
17965;SDS011;9108;53.204;10.424;2022-07-22T04:20:02;4.75;;;2.10;;
17965;SDS011;9108;53.204;10.424;2022-07-22T04:22:30;5.63;;;1.95;;
17965;SDS011;9108;53.204;10.424;2022-07-22T04:24:57;5.13;;;1.95;;
17965;SDS011;9108;53.204;10.424;2022-07-22T04:27:24;7.80;;;2.33;;
17965;SDS011;9108;53.204;10.424;2022-07-22T04:29:53;5.82;;;2.35;;
17965;SDS011;9108;53.204;10.424;2022-07-22T04:32:20;6.18;;;2.22;;
17965;SDS011;9108;53.204;10.424;2022-07-22T04:34:47;5.43;;;2.45;;
17965;SDS011;9108;53.204;10.424;2022-07-22T04:37:14;6.23;;;2.43;;
17965;SDS011;9108;53.204;10.424;2022-07-22T04:39:41;11.93;;;3.03;;
17965;SDS011;9108;53.204;10.424;2022-07-22T04:42:08;7.35;;;2.90;;
17965;SDS011;9108;53.204;10.424;2022-07-22T04:44:35;6.45;;;2.80;;
17965;SDS011;9108;53.204;10.424;2022-07-22T04:47:04;6.22;;;2.70;;
17965;SDS011;9108;53.204;10.424;2022-07-22T04:49:31;6.55;;;2.90;;
17965;SDS011;9108;53.204;10.424;2022-07-22T04:51:58;7.80;;;3.10;;
17965;SDS011;9108;53.204;10.424;2022-07-22T04:54:25;9.10;;;3.10;;
17965;SDS011;9108;53.204;10.424;2022-07-22T04:56:52;7.88;;;3.30;;
17965;SDS011;9108;53.204;10.424;2022-07-22T04:59:19;6.82;;;3.00;;
17965;SDS011;9108;53.204;10.424;2022-07-22T05:01:46;7.72;;;2.90;;
17965;SDS011;9108;53.204;10.424;2022-07-22T05:04:15;8.13;;;3.10;;
17965;SDS011;9108;53.204;10.424;2022-07-22T05:06:42;8.13;;;3.00;;
17965;SDS011;9108;53.204;10.424;2022-07-22T05:09:09;6.65;;;2.80;;
17965;SDS011;9108;53.204;10.424;2022-07-22T05:11:36;9.82;;;2.95;;
17965;SDS011;9108;53.204;10.424;2022-07-22T05:14:03;6.30;;;2.80;;
17965;SDS011;9108;53.204;10.424;2022-07-22T05:16:30;11.00;;;2.90;;
17965;SDS011;9108;53.204;10.424;2022-07-22T05:18:57;10.40;;;2.97;;
17965;SDS011;9108;53.204;10.424;2022-07-22T05:21:26;7.32;;;3.10;;
17965;SDS011;9108;53.204;10.424;2022-07-22T05:23:53;5.97;;;2.85;;
17965;SDS011;9108;53.204;10.424;2022-07-22T05:26:20;8.88;;;2.88;;
17965;SDS011;9108;53.204;10.424;2022-07-22T05:28:47;7.75;;;2.78;;
17965;SDS011;9108;53.204;10.424;2022-07-22T05:31:14;10.13;;;2.90;;
17965;SDS011;9108;53.204;10.424;2022-07-22T05:33:41;11.45;;;3.13;;
17965;SDS011;9108;53.204;10.424;2022-07-22T05:36:09;9.00;;;3.05;;
17965;SDS011;9108;53.204;10.424;2022-07-22T05:38:37;8.55;;;2.75;;
17965;SDS011;9108;53.204;10.424;2022-07-22T05:41:04;9.63;;;2.90;;
17965;SDS011;9108;53.204;10.424;2022-07-22T05:43:31;7.53;;;2.67;;
17965;SDS011;9108;53.204;10.424;2022-07-22T05:45:58;11.90;;;2.97;;
17965;SDS011;9108;53.204;10.424;2022-07-22T05:48:26;9.63;;;3.00;;
17965;SDS011;9108;53.204;10.424;2022-07-22T05:50:53;9.02;;;3.00;;
17965;SDS011;9108;53.204;10.424;2022-07-22T05:53:20;9.05;;;3.08;;
17965;SDS011;9108;53.204;10.424;2022-07-22T05:55:48;8.55;;;2.72;;
17965;SDS011;9108;53.204;10.424;2022-07-22T05:58:15;8.23;;;2.63;;
17965;SDS011;9108;53.204;10.424;2022-07-22T06:00:42;10.93;;;2.80;;
17965;SDS011;9108;53.204;10.424;2022-07-22T06:03:09;10.43;;;2.97;;
17965;SDS011;9108;53.204;10.424;2022-07-22T06:05:36;8.48;;;3.10;;
17965;SDS011;9108;53.204;10.424;2022-07-22T06:08:04;8.55;;;2.80;;
17965;SDS011;9108;53.204;10.424;2022-07-22T06:10:31;8.45;;;2.30;;
17965;SDS011;9108;53.204;10.424;2022-07-22T06:13:00;7.88;;;2.60;;
17965;SDS011;9108;53.204;10.424;2022-07-22T06:15:27;5.70;;;2.38;;
17965;SDS011;9108;53.204;10.424;2022-07-22T06:17:54;11.23;;;3.20;;
17965;SDS011;9108;53.204;10.424;2022-07-22T06:20:21;8.05;;;2.85;;
17965;SDS011;9108;53.204;10.424;2022-07-22T06:22:48;6.82;;;2.55;;
17965;SDS011;9108;53.204;10.424;2022-07-22T06:25:15;9.00;;;2.60;;
17965;SDS011;9108;53.204;10.424;2022-07-22T06:27:42;5.47;;;2.42;;
17965;SDS011;9108;53.204;10.424;2022-07-22T06:30:12;9.23;;;2.65;;
17965;SDS011;9108;53.204;10.424;2022-07-22T06:32:39;8.30;;;2.70;;
17965;SDS011;9108;53.204;10.424;2022-07-22T06:35:06;7.25;;;2.70;;
17965;SDS011;9108;53.204;10.424;2022-07-22T06:37:34;4.72;;;2.35;;
17965;SDS011;9108;53.204;10.424;2022-07-22T06:40:02;7.07;;;2.60;;
17965;SDS011;9108;53.204;10.424;2022-07-22T06:42:29;5.68;;;2.53;;
17965;SDS011;9108;53.204;10.424;2022-07-22T06:44:56;8.70;;;2.70;;
17965;SDS011;9108;53.204;10.424;2022-07-22T06:47:27;7.07;;;2.10;;
17965;SDS011;9108;53.204;10.424;2022-07-22T06:49:55;8.20;;;2.08;;
17965;SDS011;9108;53.204;10.424;2022-07-22T06:52:22;7.05;;;1.92;;
17965;SDS011;9108;53.204;10.424;2022-07-22T06:54:49;3.67;;;1.73;;
17965;SDS011;9108;53.204;10.424;2022-07-22T06:57:16;4.93;;;1.70;;
17965;SDS011;9108;53.204;10.424;2022-07-22T06:59:44;5.65;;;1.70;;
17965;SDS011;9108;53.204;10.424;2022-07-22T07:02:11;5.88;;;1.60;;
17965;SDS011;9108;53.204;10.424;2022-07-22T07:04:39;6.82;;;1.50;;
17965;SDS011;9108;53.204;10.424;2022-07-22T07:07:07;6.80;;;1.70;;
17965;SDS011;9108;53.204;10.424;2022-07-22T07:09:34;5.85;;;1.77;;
17965;SDS011;9108;53.204;10.424;2022-07-22T07:12:01;8.88;;;1.75;;
17965;SDS011;9108;53.204;10.424;2022-07-22T07:14:28;5.78;;;1.33;;
17965;SDS011;9108;53.204;10.424;2022-07-22T07:16:55;6.25;;;1.60;;
17965;SDS011;9108;53.204;10.424;2022-07-22T07:19:22;9.27;;;1.95;;
17965;SDS011;9108;53.204;10.424;2022-07-22T07:21:50;7.55;;;1.80;;
17965;SDS011;9108;53.204;10.424;2022-07-22T07:24:18;7.27;;;1.80;;
17965;SDS011;9108;53.204;10.424;2022-07-22T07:26:45;10.05;;;2.20;;
17965;SDS011;9108;53.204;10.424;2022-07-22T07:29:12;8.15;;;2.20;;
17965;SDS011;9108;53.204;10.424;2022-07-22T07:31:39;4.97;;;1.60;;
17965;SDS011;9108;53.204;10.424;2022-07-22T07:34:06;9.13;;;2.08;;
17965;SDS011;9108;53.204;10.424;2022-07-22T07:36:33;9.13;;;2.00;;
17965;SDS011;9108;53.204;10.424;2022-07-22T07:39:02;8.57;;;2.20;;
17965;SDS011;9108;53.204;10.424;2022-07-22T07:41:29;10.45;;;1.80;;
17965;SDS011;9108;53.204;10.424;2022-07-22T07:43:56;11.05;;;1.90;;
17965;SDS011;9108;53.204;10.424;2022-07-22T07:46:23;9.03;;;1.90;;
17965;SDS011;9108;53.204;10.424;2022-07-22T07:48:50;7.13;;;1.90;;
17965;SDS011;9108;53.204;10.424;2022-07-22T07:51:18;7.50;;;1.80;;
17965;SDS011;9108;53.204;10.424;2022-07-22T07:53:45;8.60;;;1.90;;
17965;SDS011;9108;53.204;10.424;2022-07-22T07:56:13;11.30;;;2.20;;
17965;SDS011;9108;53.204;10.424;2022-07-22T07:58:41;11.27;;;2.37;;
17965;SDS011;9108;53.204;10.424;2022-07-22T08:01:08;10.27;;;2.20;;
17965;SDS011;9108;53.204;10.424;2022-07-22T08:03:35;12.45;;;2.55;;
17965;SDS011;9108;53.204;10.424;2022-07-22T08:06:02;9.95;;;2.25;;
17965;SDS011;9108;53.204;10.424;2022-07-22T08:08:29;9.00;;;2.25;;
17965;SDS011;9108;53.204;10.424;2022-07-22T08:10:56;9.75;;;2.35;;
17965;SDS011;9108;53.204;10.424;2022-07-22T08:13:25;10.63;;;2.10;;
17965;SDS011;9108;53.204;10.424;2022-07-22T08:15:52;8.05;;;1.63;;
17965;SDS011;9108;53.204;10.424;2022-07-22T08:18:20;9.38;;;1.95;;
17965;SDS011;9108;53.204;10.424;2022-07-22T08:20:47;5.75;;;1.52;;
17965;SDS011;9108;53.204;10.424;2022-07-22T08:23:14;12.57;;;2.30;;
17965;SDS011;9108;53.204;10.424;2022-07-22T08:25:41;8.80;;;1.83;;
17965;SDS011;9108;53.204;10.424;2022-07-22T08:28:08;9.68;;;2.00;;
17965;SDS011;9108;53.204;10.424;2022-07-22T08:30:37;8.32;;;1.73;;
17965;SDS011;9108;53.204;10.424;2022-07-22T08:33:05;6.95;;;1.92;;
17965;SDS011;9108;53.204;10.424;2022-07-22T08:35:33;14.38;;;2.47;;
17965;SDS011;9108;53.204;10.424;2022-07-22T08:38:00;8.27;;;2.20;;
17965;SDS011;9108;53.204;10.424;2022-07-22T08:40:27;8.32;;;2.00;;
17965;SDS011;9108;53.204;10.424;2022-07-22T08:42:54;10.63;;;2.10;;
17965;SDS011;9108;53.204;10.424;2022-07-22T08:45:22;9.57;;;2.00;;
17965;SDS011;9108;53.204;10.424;2022-07-22T08:47:51;8.95;;;1.80;;
17965;SDS011;9108;53.204;10.424;2022-07-22T08:50:18;11.70;;;2.25;;
17965;SDS011;9108;53.204;10.424;2022-07-22T08:52:45;11.55;;;2.10;;
17965;SDS011;9108;53.204;10.424;2022-07-22T08:55:13;9.63;;;1.77;;
17965;SDS011;9108;53.204;10.424;2022-07-22T08:57:43;9.15;;;1.70;;
17965;SDS011;9108;53.204;10.424;2022-07-22T09:00:11;10.98;;;1.90;;
17965;SDS011;9108;53.204;10.424;2022-07-22T09:02:40;9.20;;;1.80;;
17965;SDS011;9108;53.204;10.424;2022-07-22T09:05:09;11.25;;;2.10;;
17965;SDS011;9108;53.204;10.424;2022-07-22T09:07:39;10.03;;;1.90;;
17965;SDS011;9108;53.204;10.424;2022-07-22T09:10:07;10.13;;;2.13;;
17965;SDS011;9108;53.204;10.424;2022-07-22T09:12:35;10.05;;;2.00;;
17965;SDS011;9108;53.204;10.424;2022-07-22T09:15:23;8.77;;;2.10;;
17965;SDS011;9108;53.204;10.424;2022-07-22T09:17:51;11.07;;;1.90;;
17965;SDS011;9108;53.204;10.424;2022-07-22T09:20:19;10.30;;;2.08;;
17965;SDS011;9108;53.204;10.424;2022-07-22T09:22:47;11.65;;;2.13;;
17965;SDS011;9108;53.204;10.424;2022-07-22T09:25:24;11.80;;;2.30;;
17965;SDS011;9108;53.204;10.424;2022-07-22T09:27:52;10.63;;;2.13;;
17965;SDS011;9108;53.204;10.424;2022-07-22T09:30:21;12.35;;;2.05;;
17965;SDS011;9108;53.204;10.424;2022-07-22T09:32:49;8.80;;;2.10;;
17965;SDS011;9108;53.204;10.424;2022-07-22T09:35:16;6.45;;;2.20;;
17965;SDS011;9108;53.204;10.424;2022-07-22T09:37:48;8.87;;;2.10;;
17965;SDS011;9108;53.204;10.424;2022-07-22T09:40:15;6.75;;;2.10;;
17965;SDS011;9108;53.204;10.424;2022-07-22T09:42:43;8.33;;;2.00;;
17965;SDS011;9108;53.204;10.424;2022-07-22T09:45:11;8.50;;;2.10;;
17965;SDS011;9108;53.204;10.424;2022-07-22T09:47:40;8.57;;;1.80;;
17965;SDS011;9108;53.204;10.424;2022-07-22T09:50:13;9.82;;;2.10;;
17965;SDS011;9108;53.204;10.424;2022-07-22T09:52:41;10.27;;;2.35;;
17965;SDS011;9108;53.204;10.424;2022-07-22T09:55:09;9.65;;;2.00;;
17965;SDS011;9108;53.204;10.424;2022-07-22T09:57:36;8.57;;;2.15;;
17965;SDS011;9108;53.204;10.424;2022-07-22T10:00:04;10.83;;;2.30;;
17965;SDS011;9108;53.204;10.424;2022-07-22T10:02:33;11.18;;;2.10;;
17965;SDS011;9108;53.204;10.424;2022-07-22T10:05:02;8.68;;;2.25;;
17965;SDS011;9108;53.204;10.424;2022-07-22T10:07:30;8.95;;;2.10;;
17965;SDS011;9108;53.204;10.424;2022-07-22T10:09:57;7.03;;;1.90;;
17965;SDS011;9108;53.204;10.424;2022-07-22T10:12:26;8.10;;;2.20;;
17965;SDS011;9108;53.204;10.424;2022-07-22T10:14:53;9.82;;;2.10;;
17965;SDS011;9108;53.204;10.424;2022-07-22T10:17:20;7.43;;;2.10;;
17965;SDS011;9108;53.204;10.424;2022-07-22T10:19:48;7.30;;;1.83;;
17965;SDS011;9108;53.204;10.424;2022-07-22T10:24:58;9.80;;;2.07;;
17965;SDS011;9108;53.204;10.424;2022-07-22T10:30:10;7.82;;;1.90;;
17965;SDS011;9108;53.204;10.424;2022-07-22T10:32:37;8.52;;;2.08;;
17965;SDS011;9108;53.204;10.424;2022-07-22T10:35:23;7.55;;;1.70;;
17965;SDS011;9108;53.204;10.424;2022-07-22T10:37:59;9.88;;;1.75;;
17965;SDS011;9108;53.204;10.424;2022-07-22T10:40:27;5.05;;;1.70;;
17965;SDS011;9108;53.204;10.424;2022-07-22T10:43:04;8.18;;;1.60;;
17965;SDS011;9108;53.204;10.424;2022-07-22T10:45:34;7.97;;;1.75;;
17965;SDS011;9108;53.204;10.424;2022-07-22T10:48:02;7.05;;;1.80;;
17965;SDS011;9108;53.204;10.424;2022-07-22T10:53:23;7.45;;;1.50;;
17965;SDS011;9108;53.204;10.424;2022-07-22T10:55:57;6.13;;;1.50;;
17965;SDS011;9108;53.204;10.424;2022-07-22T11:01:24;7.63;;;1.60;;
17965;SDS011;9108;53.204;10.424;2022-07-22T11:03:53;6.68;;;1.50;;
17965;SDS011;9108;53.204;10.424;2022-07-22T11:06:21;4.97;;;1.30;;
17965;SDS011;9108;53.204;10.424;2022-07-22T11:08:50;5.82;;;1.50;;
17965;SDS011;9108;53.204;10.424;2022-07-22T11:11:17;7.32;;;1.60;;
17965;SDS011;9108;53.204;10.424;2022-07-22T11:13:45;6.47;;;1.50;;
17965;SDS011;9108;53.204;10.424;2022-07-22T11:16:16;7.35;;;1.55;;
17965;SDS011;9108;53.204;10.424;2022-07-22T11:18:45;6.53;;;1.40;;
17965;SDS011;9108;53.204;10.424;2022-07-22T11:21:13;9.17;;;1.50;;
17965;SDS011;9108;53.204;10.424;2022-07-22T11:23:40;9.38;;;1.80;;
17965;SDS011;9108;53.204;10.424;2022-07-22T11:26:08;8.50;;;1.75;;
17965;SDS011;9108;53.204;10.424;2022-07-22T11:28:38;7.28;;;1.70;;
17965;SDS011;9108;53.204;10.424;2022-07-22T11:31:05;7.75;;;1.67;;
17965;SDS011;9108;53.204;10.424;2022-07-22T11:33:32;6.43;;;1.58;;
17965;SDS011;9108;53.204;10.424;2022-07-22T11:36:02;8.68;;;1.90;;
17965;SDS011;9108;53.204;10.424;2022-07-22T11:38:39;7.65;;;1.40;;
17965;SDS011;9108;53.204;10.424;2022-07-22T11:41:06;5.13;;;1.52;;
17965;SDS011;9108;53.204;10.424;2022-07-22T11:43:37;8.60;;;1.57;;
17965;SDS011;9108;53.204;10.424;2022-07-22T11:46:04;5.57;;;1.65;;
17965;SDS011;9108;53.204;10.424;2022-07-22T11:48:31;5.00;;;1.50;;
17965;SDS011;9108;53.204;10.424;2022-07-22T11:50:59;7.32;;;1.65;;
17965;SDS011;9108;53.204;10.424;2022-07-22T11:53:28;9.53;;;1.60;;
17965;SDS011;9108;53.204;10.424;2022-07-22T11:55:58;6.90;;;1.60;;
17965;SDS011;9108;53.204;10.424;2022-07-22T11:58:35;6.97;;;1.58;;
17965;SDS011;9108;53.204;10.424;2022-07-22T12:01:03;9.32;;;1.80;;
17965;SDS011;9108;53.204;10.424;2022-07-22T12:03:31;5.88;;;1.83;;
17965;SDS011;9108;53.204;10.424;2022-07-22T12:05:59;7.13;;;1.50;;
17965;SDS011;9108;53.204;10.424;2022-07-22T12:08:28;5.95;;;1.70;;
17965;SDS011;9108;53.204;10.424;2022-07-22T12:10:56;7.53;;;1.60;;
17965;SDS011;9108;53.204;10.424;2022-07-22T12:13:27;6.07;;;1.55;;
17965;SDS011;9108;53.204;10.424;2022-07-22T12:15:54;7.00;;;1.30;;
17965;SDS011;9108;53.204;10.424;2022-07-22T12:18:22;4.65;;;1.27;;
17965;SDS011;9108;53.204;10.424;2022-07-22T12:20:50;7.23;;;1.57;;
17965;SDS011;9108;53.204;10.424;2022-07-22T12:23:17;6.30;;;1.40;;
17965;SDS011;9108;53.204;10.424;2022-07-22T12:25:53;6.65;;;1.50;;
17965;SDS011;9108;53.204;10.424;2022-07-22T12:28:20;7.18;;;1.70;;
17965;SDS011;9108;53.204;10.424;2022-07-22T12:30:48;5.93;;;1.58;;
17965;SDS011;9108;53.204;10.424;2022-07-22T12:33:15;6.88;;;1.52;;
17965;SDS011;9108;53.204;10.424;2022-07-22T12:35:43;5.72;;;1.50;;
17965;SDS011;9108;53.204;10.424;2022-07-22T12:38:10;4.50;;;1.50;;
17965;SDS011;9108;53.204;10.424;2022-07-22T12:40:37;7.78;;;1.50;;
17965;SDS011;9108;53.204;10.424;2022-07-22T12:43:06;6.28;;;1.52;;
17965;SDS011;9108;53.204;10.424;2022-07-22T12:45:34;6.33;;;1.50;;
17965;SDS011;9108;53.204;10.424;2022-07-22T12:48:05;8.65;;;1.70;;
17965;SDS011;9108;53.204;10.424;2022-07-22T12:50:34;5.25;;;1.38;;
17965;SDS011;9108;53.204;10.424;2022-07-22T12:53:04;4.38;;;1.52;;
17965;SDS011;9108;53.204;10.424;2022-07-22T12:55:31;6.32;;;1.50;;
17965;SDS011;9108;53.204;10.424;2022-07-22T12:57:59;6.30;;;1.65;;
17965;SDS011;9108;53.204;10.424;2022-07-22T13:00:28;7.10;;;1.50;;
17965;SDS011;9108;53.204;10.424;2022-07-22T13:02:55;5.82;;;1.40;;
17965;SDS011;9108;53.204;10.424;2022-07-22T13:05:23;5.88;;;1.50;;
17965;SDS011;9108;53.204;10.424;2022-07-22T13:07:50;6.22;;;1.60;;
17965;SDS011;9108;53.204;10.424;2022-07-22T13:10:18;4.65;;;1.30;;
17965;SDS011;9108;53.204;10.424;2022-07-22T13:12:46;4.50;;;1.50;;
17965;SDS011;9108;53.204;10.424;2022-07-22T13:15:13;5.55;;;1.30;;
17965;SDS011;9108;53.204;10.424;2022-07-22T13:17:42;5.15;;;1.30;;
17965;SDS011;9108;53.204;10.424;2022-07-22T13:20:10;5.35;;;1.30;;
17965;SDS011;9108;53.204;10.424;2022-07-22T13:22:38;4.57;;;1.52;;
17965;SDS011;9108;53.204;10.424;2022-07-22T13:25:06;3.80;;;1.48;;
17965;SDS011;9108;53.204;10.424;2022-07-22T13:27:33;3.80;;;1.20;;
17965;SDS011;9108;53.204;10.424;2022-07-22T13:30:01;5.35;;;1.27;;
17965;SDS011;9108;53.204;10.424;2022-07-22T13:32:28;4.15;;;1.20;;
17965;SDS011;9108;53.204;10.424;2022-07-22T13:34:56;5.07;;;1.40;;
17965;SDS011;9108;53.204;10.424;2022-07-22T13:37:23;5.15;;;1.25;;
17965;SDS011;9108;53.204;10.424;2022-07-22T13:39:50;4.67;;;1.47;;
17965;SDS011;9108;53.204;10.424;2022-07-22T13:42:18;6.03;;;1.23;;
17965;SDS011;9108;53.204;10.424;2022-07-22T13:44:45;6.18;;;1.33;;
17965;SDS011;9108;53.204;10.424;2022-07-22T13:47:12;5.40;;;1.30;;
17965;SDS011;9108;53.204;10.424;2022-07-22T13:49:40;4.80;;;1.50;;
17965;SDS011;9108;53.204;10.424;2022-07-22T13:52:08;6.47;;;1.40;;
17965;SDS011;9108;53.204;10.424;2022-07-22T13:54:35;3.78;;;1.30;;
17965;SDS011;9108;53.204;10.424;2022-07-22T13:57:02;3.00;;;1.25;;
17965;SDS011;9108;53.204;10.424;2022-07-22T13:59:30;6.38;;;1.40;;
17965;SDS011;9108;53.204;10.424;2022-07-22T14:01:57;4.05;;;1.27;;
17965;SDS011;9108;53.204;10.424;2022-07-22T14:04:24;5.82;;;1.48;;
17965;SDS011;9108;53.204;10.424;2022-07-22T14:06:52;5.43;;;1.40;;
17965;SDS011;9108;53.204;10.424;2022-07-22T14:09:20;5.50;;;1.48;;
17965;SDS011;9108;53.204;10.424;2022-07-22T14:11:47;4.55;;;1.20;;
17965;SDS011;9108;53.204;10.424;2022-07-22T14:14:14;6.22;;;1.40;;
17965;SDS011;9108;53.204;10.424;2022-07-22T14:16:41;3.75;;;1.30;;
17965;SDS011;9108;53.204;10.424;2022-07-22T14:19:09;4.47;;;1.35;;
17965;SDS011;9108;53.204;10.424;2022-07-22T14:21:37;4.47;;;1.30;;
17965;SDS011;9108;53.204;10.424;2022-07-22T14:24:05;4.53;;;1.30;;
17965;SDS011;9108;53.204;10.424;2022-07-22T14:26:34;3.57;;;1.30;;
17965;SDS011;9108;53.204;10.424;2022-07-22T14:29:01;7.10;;;1.30;;
17965;SDS011;9108;53.204;10.424;2022-07-22T14:31:28;3.88;;;1.17;;
17965;SDS011;9108;53.204;10.424;2022-07-22T14:33:56;5.22;;;1.20;;
17965;SDS011;9108;53.204;10.424;2022-07-22T14:36:23;5.63;;;1.20;;
17965;SDS011;9108;53.204;10.424;2022-07-22T14:38:51;4.60;;;1.27;;
17965;SDS011;9108;53.204;10.424;2022-07-22T14:41:18;3.78;;;1.48;;
17965;SDS011;9108;53.204;10.424;2022-07-22T14:43:47;5.65;;;1.55;;
17965;SDS011;9108;53.204;10.424;2022-07-22T14:46:14;7.70;;;1.50;;
17965;SDS011;9108;53.204;10.424;2022-07-22T14:48:41;5.00;;;1.30;;
17965;SDS011;9108;53.204;10.424;2022-07-22T14:51:09;4.32;;;1.30;;
17965;SDS011;9108;53.204;10.424;2022-07-22T14:53:37;4.75;;;1.42;;
17965;SDS011;9108;53.204;10.424;2022-07-22T14:56:04;7.13;;;1.50;;
17965;SDS011;9108;53.204;10.424;2022-07-22T14:58:31;5.00;;;1.40;;